sensor_id;sensor_type;location;lat;lon;timestamp;P1;durP1;ratioP1;P2;durP2;ratioP2
22017;SDS011;11173;51.050;7.108;2024-02-04T00:07:23;3.58;;;3.28;;
22017;SDS011;11173;51.050;7.108;2024-02-04T00:17:23;2.63;;;2.42;;
22017;SDS011;11173;51.050;7.108;2024-02-04T00:27:23;1.15;;;0.95;;
22017;SDS011;11173;51.050;7.108;2024-02-04T00:37:23;1.05;;;0.95;;
22017;SDS011;11173;51.050;7.108;2024-02-04T00:47:24;1.45;;;1.30;;
22017;SDS011;11173;51.050;7.108;2024-02-04T00:57:25;1.30;;;1.30;;
22017;SDS011;11173;51.050;7.108;2024-02-04T01:07:27;2.22;;;1.77;;
22017;SDS011;11173;51.050;7.108;2024-02-04T01:17:27;2.10;;;2.00;;
22017;SDS011;11173;51.050;7.108;2024-02-04T01:27:27;2.85;;;2.65;;
22017;SDS011;11173;51.050;7.108;2024-02-04T01:37:28;3.55;;;3.35;;
22017;SDS011;11173;51.050;7.108;2024-02-04T01:47:28;3.85;;;3.55;;
22017;SDS011;11173;51.050;7.108;2024-02-04T01:57:28;3.60;;;3.30;;
22017;SDS011;11173;51.050;7.108;2024-02-04T02:07:28;3.10;;;2.90;;
22017;SDS011;11173;51.050;7.108;2024-02-04T02:17:31;2.90;;;2.70;;
22017;SDS011;11173;51.050;7.108;2024-02-04T02:27:33;2.60;;;2.40;;
22017;SDS011;11173;51.050;7.108;2024-02-04T02:37:41;2.78;;;2.63;;
22017;SDS011;11173;51.050;7.108;2024-02-04T02:47:43;4.17;;;3.93;;
22017;SDS011;11173;51.050;7.108;2024-02-04T02:57:44;4.13;;;3.83;;
22017;SDS011;11173;51.050;7.108;2024-02-04T03:07:44;2.72;;;2.58;;
22017;SDS011;11173;51.050;7.108;2024-02-04T03:17:45;2.45;;;2.35;;
22017;SDS011;11173;51.050;7.108;2024-02-04T03:27:45;1.80;;;1.70;;
22017;SDS011;11173;51.050;7.108;2024-02-04T03:37:45;2.60;;;2.47;;
22017;SDS011;11173;51.050;7.108;2024-02-04T03:47:45;2.40;;;2.30;;
22017;SDS011;11173;51.050;7.108;2024-02-04T03:57:47;3.08;;;2.90;;
22017;SDS011;11173;51.050;7.108;2024-02-04T04:07:47;3.40;;;3.20;;
22017;SDS011;11173;51.050;7.108;2024-02-04T04:17:47;4.18;;;3.88;;
22017;SDS011;11173;51.050;7.108;2024-02-04T04:27:48;4.57;;;4.10;;
22017;SDS011;11173;51.050;7.108;2024-02-04T04:37:48;4.95;;;4.60;;
22017;SDS011;11173;51.050;7.108;2024-02-04T04:47:48;4.50;;;4.20;;
22017;SDS011;11173;51.050;7.108;2024-02-04T04:57:48;4.18;;;3.88;;
22017;SDS011;11173;51.050;7.108;2024-02-04T05:07:49;3.30;;;3.00;;
22017;SDS011;11173;51.050;7.108;2024-02-04T05:17:49;3.38;;;3.17;;
22017;SDS011;11173;51.050;7.108;2024-02-04T05:27:49;4.55;;;3.95;;
22017;SDS011;11173;51.050;7.108;2024-02-04T05:37:49;4.22;;;3.88;;
22017;SDS011;11173;51.050;7.108;2024-02-04T05:47:50;4.00;;;3.70;;
22017;SDS011;11173;51.050;7.108;2024-02-04T05:57:50;4.60;;;4.25;;
22017;SDS011;11173;51.050;7.108;2024-02-04T06:07:50;4.47;;;4.10;;
22017;SDS011;11173;51.050;7.108;2024-02-04T06:17:50;4.60;;;4.18;;
22017;SDS011;11173;51.050;7.108;2024-02-04T06:27:51;8.27;;;5.60;;
22017;SDS011;11173;51.050;7.108;2024-02-04T06:37:51;9.02;;;7.07;;
22017;SDS011;11173;51.050;7.108;2024-02-04T06:47:52;5.65;;;5.07;;
22017;SDS011;11173;51.050;7.108;2024-02-04T06:57:52;5.80;;;5.30;;
22017;SDS011;11173;51.050;7.108;2024-02-04T07:07:52;4.15;;;3.85;;
22017;SDS011;11173;51.050;7.108;2024-02-04T07:17:53;3.85;;;3.55;;
22017;SDS011;11173;51.050;7.108;2024-02-04T07:27:53;2.30;;;2.20;;
22017;SDS011;11173;51.050;7.108;2024-02-04T07:37:53;1.80;;;1.70;;
22017;SDS011;11173;51.050;7.108;2024-02-04T07:47:54;3.17;;;1.73;;
22017;SDS011;11173;51.050;7.108;2024-02-04T07:57:54;1.50;;;1.40;;
22017;SDS011;11173;51.050;7.108;2024-02-04T08:07:54;2.10;;;1.77;;
22017;SDS011;11173;51.050;7.108;2024-02-04T08:17:55;2.20;;;1.35;;
22017;SDS011;11173;51.050;7.108;2024-02-04T08:27:55;1.30;;;1.20;;
22017;SDS011;11173;51.050;7.108;2024-02-04T08:37:55;1.42;;;1.33;;
22017;SDS011;11173;51.050;7.108;2024-02-04T08:47:56;2.88;;;1.30;;
22017;SDS011;11173;51.050;7.108;2024-02-04T08:57:56;1.83;;;1.58;;
22017;SDS011;11173;51.050;7.108;2024-02-04T09:07:56;1.60;;;1.50;;
22017;SDS011;11173;51.050;7.108;2024-02-04T09:17:57;1.63;;;1.52;;
22017;SDS011;11173;51.050;7.108;2024-02-04T09:27:57;1.55;;;1.45;;
22017;SDS011;11173;51.050;7.108;2024-02-04T09:37:57;1.70;;;1.52;;
22017;SDS011;11173;51.050;7.108;2024-02-04T09:47:57;1.75;;;1.60;;
22017;SDS011;11173;51.050;7.108;2024-02-04T09:57:58;1.13;;;1.05;;
22017;SDS011;11173;51.050;7.108;2024-02-04T10:07:58;1.50;;;1.40;;
22017;SDS011;11173;51.050;7.108;2024-02-04T10:17:59;1.65;;;1.55;;
22017;SDS011;11173;51.050;7.108;2024-02-04T10:27:59;1.70;;;1.60;;
22017;SDS011;11173;51.050;7.108;2024-02-04T10:37:59;2.47;;;2.25;;
22017;SDS011;11173;51.050;7.108;2024-02-04T10:48:00;2.30;;;2.15;;
22017;SDS011;11173;51.050;7.108;2024-02-04T10:58:01;2.95;;;2.67;;
22017;SDS011;11173;51.050;7.108;2024-02-04T11:08:02;2.35;;;2.20;;
22017;SDS011;11173;51.050;7.108;2024-02-04T11:28:04;2.10;;;2.00;;
22017;SDS011;11173;51.050;7.108;2024-02-04T11:38:04;2.03;;;1.80;;
22017;SDS011;11173;51.050;7.108;2024-02-04T11:48:06;2.33;;;2.00;;
22017;SDS011;11173;51.050;7.108;2024-02-04T11:58:07;1.92;;;1.83;;
22017;SDS011;11173;51.050;7.108;2024-02-04T12:08:07;2.58;;;2.30;;
22017;SDS011;11173;51.050;7.108;2024-02-04T12:18:08;2.40;;;2.13;;
22017;SDS011;11173;51.050;7.108;2024-02-04T12:28:09;2.00;;;1.90;;
22017;SDS011;11173;51.050;7.108;2024-02-04T12:38:09;1.88;;;1.70;;
22017;SDS011;11173;51.050;7.108;2024-02-04T12:48:09;1.85;;;1.75;;
22017;SDS011;11173;51.050;7.108;2024-02-04T12:58:14;2.53;;;2.33;;
22017;SDS011;11173;51.050;7.108;2024-02-04T13:08:18;1.58;;;1.48;;
22017;SDS011;11173;51.050;7.108;2024-02-04T13:18:18;1.83;;;1.65;;
22017;SDS011;11173;51.050;7.108;2024-02-04T13:28:21;2.55;;;2.45;;
22017;SDS011;11173;51.050;7.108;2024-02-04T13:38:23;3.22;;;2.65;;
22017;SDS011;11173;51.050;7.108;2024-02-04T13:48:23;2.92;;;2.72;;
22017;SDS011;11173;51.050;7.108;2024-02-04T13:58:25;3.50;;;3.22;;
22017;SDS011;11173;51.050;7.108;2024-02-04T14:08:27;3.22;;;2.80;;
22017;SDS011;11173;51.050;7.108;2024-02-04T14:18:27;2.22;;;2.13;;
22017;SDS011;11173;51.050;7.108;2024-02-04T14:28:27;1.20;;;1.20;;
22017;SDS011;11173;51.050;7.108;2024-02-04T14:38:27;1.52;;;1.42;;
22017;SDS011;11173;51.050;7.108;2024-02-04T14:48:27;1.35;;;1.17;;
22017;SDS011;11173;51.050;7.108;2024-02-04T14:58:28;1.50;;;1.10;;
22017;SDS011;11173;51.050;7.108;2024-02-04T15:08:28;1.20;;;1.00;;
22017;SDS011;11173;51.050;7.108;2024-02-04T15:18:28;1.83;;;1.10;;
22017;SDS011;11173;51.050;7.108;2024-02-04T15:28:29;2.45;;;1.23;;
22017;SDS011;11173;51.050;7.108;2024-02-04T15:38:29;1.10;;;1.00;;
22017;SDS011;11173;51.050;7.108;2024-02-04T15:48:29;1.25;;;0.93;;
22017;SDS011;11173;51.050;7.108;2024-02-04T15:58:31;0.95;;;0.90;;
22017;SDS011;11173;51.050;7.108;2024-02-04T16:08:32;1.15;;;1.05;;
22017;SDS011;11173;51.050;7.108;2024-02-04T16:18:32;2.03;;;1.00;;
22017;SDS011;11173;51.050;7.108;2024-02-04T16:28:33;1.58;;;1.48;;
22017;SDS011;11173;51.050;7.108;2024-02-04T16:38:33;1.52;;;1.42;;
22017;SDS011;11173;51.050;7.108;2024-02-04T16:48:34;2.88;;;1.20;;
22017;SDS011;11173;51.050;7.108;2024-02-04T16:58:34;0.95;;;0.93;;
22017;SDS011;11173;51.050;7.108;2024-02-04T17:08:35;1.90;;;1.40;;
22017;SDS011;11173;51.050;7.108;2024-02-04T17:18:41;1.52;;;1.42;;
22017;SDS011;11173;51.050;7.108;2024-02-04T17:28:44;2.90;;;1.77;;
22017;SDS011;11173;51.050;7.108;2024-02-04T17:38:44;1.50;;;1.40;;
22017;SDS011;11173;51.050;7.108;2024-02-04T17:48:45;2.13;;;1.20;;
22017;SDS011;11173;51.050;7.108;2024-02-04T17:58:45;1.40;;;1.10;;
22017;SDS011;11173;51.050;7.108;2024-02-04T18:08:47;1.67;;;1.20;;
22017;SDS011;11173;51.050;7.108;2024-02-04T18:18:47;1.45;;;1.20;;
22017;SDS011;11173;51.050;7.108;2024-02-04T18:28:48;1.55;;;0.90;;
22017;SDS011;11173;51.050;7.108;2024-02-04T18:38:52;1.90;;;1.20;;
22017;SDS011;11173;51.050;7.108;2024-02-04T18:48:52;3.15;;;1.98;;
22017;SDS011;11173;51.050;7.108;2024-02-04T18:58:53;2.80;;;2.60;;
22017;SDS011;11173;51.050;7.108;2024-02-04T19:08:54;2.85;;;2.63;;
22017;SDS011;11173;51.050;7.108;2024-02-04T19:18:55;2.27;;;2.13;;
22017;SDS011;11173;51.050;7.108;2024-02-04T19:28:55;3.08;;;2.70;;
22017;SDS011;11173;51.050;7.108;2024-02-04T19:38:55;2.10;;;1.98;;
22017;SDS011;11173;51.050;7.108;2024-02-04T19:48:56;2.20;;;2.00;;
22017;SDS011;11173;51.050;7.108;2024-02-04T19:58:56;1.88;;;1.73;;
22017;SDS011;11173;51.050;7.108;2024-02-04T20:09:03;2.15;;;2.05;;
22017;SDS011;11173;51.050;7.108;2024-02-04T20:19:05;1.92;;;1.83;;
22017;SDS011;11173;51.050;7.108;2024-02-04T20:29:06;1.40;;;1.30;;
22017;SDS011;11173;51.050;7.108;2024-02-04T20:39:06;1.70;;;1.60;;
22017;SDS011;11173;51.050;7.108;2024-02-04T20:49:07;1.83;;;1.33;;
22017;SDS011;11173;51.050;7.108;2024-02-04T20:59:07;1.00;;;1.00;;
22017;SDS011;11173;51.050;7.108;2024-02-04T21:09:08;1.40;;;1.30;;
22017;SDS011;11173;51.050;7.108;2024-02-04T21:19:09;1.38;;;1.27;;
22017;SDS011;11173;51.050;7.108;2024-02-04T21:29:10;1.27;;;1.17;;
22017;SDS011;11173;51.050;7.108;2024-02-04T21:39:10;2.15;;;1.60;;
22017;SDS011;11173;51.050;7.108;2024-02-04T21:49:10;1.48;;;1.38;;
22017;SDS011;11173;51.050;7.108;2024-02-04T21:59:11;1.77;;;1.13;;
22017;SDS011;11173;51.050;7.108;2024-02-04T22:09:11;1.48;;;1.20;;
22017;SDS011;11173;51.050;7.108;2024-02-04T22:19:11;1.27;;;1.05;;
22017;SDS011;11173;51.050;7.108;2024-02-04T22:29:12;2.30;;;0.93;;
22017;SDS011;11173;51.050;7.108;2024-02-04T22:39:12;1.48;;;0.98;;
22017;SDS011;11173;51.050;7.108;2024-02-04T22:49:13;1.42;;;1.13;;
22017;SDS011;11173;51.050;7.108;2024-02-04T22:59:13;4.20;;;1.60;;
22017;SDS011;11173;51.050;7.108;2024-02-04T23:09:14;1.88;;;1.63;;
22017;SDS011;11173;51.050;7.108;2024-02-04T23:19:15;2.70;;;1.80;;
22017;SDS011;11173;51.050;7.108;2024-02-04T23:29:19;5.60;;;2.55;;
22017;SDS011;11173;51.050;7.108;2024-02-04T23:39:20;4.30;;;2.28;;
22017;SDS011;11173;51.050;7.108;2024-02-04T23:49:20;6.07;;;2.13;;
22017;SDS011;11173;51.050;7.108;2024-02-04T23:59:21;9.60;;;2.75;;
